createdAt,value
2023-05-09T00:00:11.296Z,8.37
2023-05-09T00:02:41.723Z,8.23
2023-05-09T00:05:11.372Z,8.24
2023-05-09T00:07:39.974Z,8.13
2023-05-09T00:10:11.044Z,8.08
2023-05-09T00:12:40.042Z,7.97
2023-05-09T00:15:09.776Z,7.93
2023-05-09T00:17:38.832Z,7.96
2023-05-09T00:20:12.572Z,7.98
2023-05-09T00:22:41.972Z,7.87
2023-05-09T00:25:13.351Z,7.82
2023-05-09T00:27:42.530Z,7.83
2023-05-09T00:30:11.706Z,7.67
2023-05-09T00:32:41.845Z,7.65
2023-05-09T00:35:11.293Z,7.62
2023-05-09T00:37:40.172Z,7.61
2023-05-09T00:40:09.933Z,7.68
2023-05-09T00:42:40.213Z,7.74
2023-05-09T00:45:10.253Z,7.76
2023-05-09T00:47:40.671Z,7.84
2023-05-09T00:50:10.831Z,7.85
2023-05-09T00:52:40.513Z,7.61
2023-05-09T00:55:10.436Z,7.49
2023-05-09T00:57:40.792Z,7.48
2023-05-09T01:00:13.645Z,7.48
2023-05-09T01:02:44.025Z,7.32
2023-05-09T01:05:13.933Z,7.22
2023-05-09T01:07:49.996Z,7.21
2023-05-09T01:10:30.633Z,7.21
2023-05-09T01:13:24.836Z,7.22
2023-05-09T01:15:58.817Z,7.17
2023-05-09T01:18:35.192Z,7.14
2023-05-09T01:21:09.028Z,7.10
2023-05-09T01:24:02.210Z,6.96
2023-05-09T01:26:46.191Z,6.90
2023-05-09T01:29:36.662Z,6.92
2023-05-09T01:32:10.184Z,6.97
2023-05-09T01:34:41.708Z,7.08
2023-05-09T01:37:12.691Z,7.20
2023-05-09T01:39:43.486Z,7.29
2023-05-09T01:42:14.679Z,7.33
2023-05-09T01:44:47.211Z,7.37
2023-05-09T01:47:17.802Z,7.39
2023-05-09T01:49:49.022Z,7.37
2023-05-09T01:52:21.348Z,7.37
2023-05-09T01:54:53.039Z,7.37
2023-05-09T01:57:23.516Z,7.35
2023-05-09T01:59:55.705Z,7.41
2023-05-09T02:02:27.497Z,7.39
2023-05-09T02:04:58.780Z,7.44
2023-05-09T02:07:30.329Z,7.43
2023-05-09T02:09:59.756Z,7.40
2023-05-09T02:12:28.635Z,7.37
2023-05-09T02:14:59.041Z,7.29
2023-05-09T02:17:31.052Z,7.10
2023-05-09T02:20:00.717Z,6.93
2023-05-09T02:22:29.693Z,6.91
2023-05-09T02:25:00.874Z,6.78
2023-05-09T02:27:29.932Z,6.80
2023-05-09T02:30:04.576Z,6.89
2023-05-09T02:32:35.802Z,6.97
2023-05-09T02:35:06.986Z,6.87
2023-05-09T02:37:36.432Z,6.67
2023-05-09T02:40:09.454Z,6.65
2023-05-09T02:42:38.278Z,6.69
2023-05-09T02:45:11.312Z,6.67
2023-05-09T02:47:40.566Z,6.67
2023-05-09T02:50:10.230Z,6.74
2023-05-09T02:52:41.239Z,6.80
2023-05-09T02:55:11.047Z,6.82
2023-05-09T02:57:43.268Z,6.79
2023-05-09T03:00:14.911Z,6.71
2023-05-09T03:02:43.811Z,6.67
2023-05-09T03:05:17.942Z,6.62
2023-05-09T03:07:46.835Z,6.62
2023-05-09T03:10:15.583Z,6.58
2023-05-09T03:12:44.937Z,6.61
2023-05-09T03:15:15.959Z,6.53
2023-05-09T03:17:48.287Z,6.67
2023-05-09T03:20:17.516Z,6.74
2023-05-09T03:22:46.285Z,6.75
2023-05-09T03:25:16.713Z,6.69
2023-05-09T03:27:46.494Z,6.66
2023-05-09T03:30:19.269Z,6.70
2023-05-09T03:32:51.261Z,6.65
2023-05-09T03:35:20.412Z,6.66
2023-05-09T03:37:49.139Z,6.68
2023-05-09T03:40:18.348Z,6.71
2023-05-09T03:42:56.078Z,6.68
2023-05-09T03:45:26.339Z,6.75
2023-05-09T03:47:55.560Z,6.75
2023-05-09T03:50:24.475Z,6.87
2023-05-09T03:52:56.058Z,6.85
2023-05-09T03:55:25.127Z,6.96
2023-05-09T03:57:53.971Z,6.93
2023-05-09T04:00:23.873Z,7.01
2023-05-09T04:03:14.007Z,7.11
2023-05-09T04:05:48.171Z,7.18
2023-05-09T04:08:29.580Z,7.20
2023-05-09T04:10:58.901Z,7.16
2023-05-09T04:13:28.361Z,7.19
2023-05-09T04:15:57.362Z,7.21
2023-05-09T04:18:29.305Z,7.28
2023-05-09T04:20:58.126Z,7.45
2023-05-09T04:23:27.152Z,7.60
2023-05-09T04:26:00.289Z,7.78
2023-05-09T04:28:30.110Z,7.93
2023-05-09T04:30:59.573Z,8.04
2023-05-09T04:33:31.751Z,8.15
2023-05-09T04:36:03.814Z,8.30
2023-05-09T04:38:33.091Z,8.36
2023-05-09T04:41:02.819Z,8.45
2023-05-09T04:43:32.914Z,8.43
2023-05-09T04:46:02.778Z,8.48
2023-05-09T04:48:33.345Z,8.48
2023-05-09T04:51:02.328Z,8.52
2023-05-09T04:53:32.432Z,8.76
2023-05-09T04:56:03.135Z,8.80
2023-05-09T04:58:34.652Z,8.80
2023-05-09T05:01:03.993Z,8.79
2023-05-09T05:03:35.340Z,8.75
2023-05-09T05:06:04.153Z,8.78
2023-05-09T05:08:34.032Z,8.80
2023-05-09T05:11:03.259Z,8.92
2023-05-09T05:13:32.093Z,9.22
2023-05-09T05:16:03.549Z,9.47
2023-05-09T05:18:33.866Z,9.37
2023-05-09T05:21:03.203Z,9.44
2023-05-09T05:23:32.236Z,9.47
2023-05-09T05:26:01.204Z,9.52
2023-05-09T05:28:30.571Z,9.72
2023-05-09T05:30:59.506Z,9.94
2023-05-09T05:33:28.197Z,9.96
2023-05-09T05:35:59.280Z,9.95
2023-05-09T05:38:28.233Z,9.99
2023-05-09T05:40:59.201Z,10.10
2023-05-09T05:43:29.863Z,10.16
2023-05-09T05:45:59.009Z,10.30
2023-05-09T05:48:30.069Z,10.45
2023-05-09T05:51:00.879Z,10.50
2023-05-09T05:53:33.110Z,10.60
2023-05-09T05:56:02.166Z,10.74
2023-05-09T05:58:32.957Z,10.84
2023-05-09T06:01:02.200Z,10.88
2023-05-09T06:03:32.387Z,10.95
2023-05-09T06:06:06.601Z,11.07
2023-05-09T06:08:36.163Z,11.13
2023-05-09T06:11:06.163Z,11.41
2023-05-09T06:13:35.250Z,11.55
2023-05-09T06:16:18.072Z,11.58
2023-05-09T06:18:54.094Z,11.78
2023-05-09T06:21:26.655Z,11.92
2023-05-09T06:24:04.971Z,11.97
2023-05-09T06:26:35.377Z,12.13
2023-05-09T06:29:04.115Z,12.05
2023-05-09T06:31:33.283Z,11.96
2023-05-09T06:34:02.017Z,12.09
2023-05-09T06:36:32.563Z,12.12
2023-05-09T06:39:01.900Z,12.16
2023-05-09T06:41:30.929Z,12.37
2023-05-09T06:43:59.669Z,12.59
2023-05-09T06:46:28.973Z,12.79
2023-05-09T06:48:57.744Z,12.77
2023-05-09T06:51:27.291Z,12.66
2023-05-09T06:53:58.292Z,12.57
2023-05-09T06:56:27.184Z,12.63
2023-05-09T06:58:55.986Z,12.58
2023-05-09T07:01:24.935Z,12.68
2023-05-09T07:03:53.631Z,12.71
2023-05-09T07:06:22.528Z,12.77
2023-05-09T07:08:51.361Z,12.91
2023-05-09T07:11:22.554Z,13.02
2023-05-09T07:13:51.359Z,13.13
2023-05-09T07:16:23.255Z,13.37
2023-05-09T07:18:52.190Z,13.58
2023-05-09T07:21:20.927Z,13.76
2023-05-09T07:23:50.174Z,13.83
2023-05-09T07:26:21.536Z,13.90
2023-05-09T07:28:50.393Z,13.86
2023-05-09T07:31:19.616Z,13.83
2023-05-09T07:33:48.395Z,13.85
2023-05-09T07:36:17.371Z,13.93
2023-05-09T07:38:48.291Z,14.03
2023-05-09T07:41:17.213Z,13.99
2023-05-09T07:43:47.473Z,13.93
2023-05-09T07:46:16.249Z,13.72
2023-05-09T07:48:45.414Z,13.78
2023-05-09T07:51:14.215Z,14.06
2023-05-09T07:53:42.850Z,14.05
2023-05-09T07:56:11.783Z,14.05
2023-05-09T07:58:40.561Z,14.16
2023-05-09T08:01:10.839Z,14.20
2023-05-09T08:03:39.737Z,14.38
2023-05-09T08:06:09.006Z,14.59
2023-05-09T08:08:38.952Z,14.70
2023-05-09T08:11:07.977Z,14.82
2023-05-09T08:13:36.685Z,14.83
2023-05-09T08:16:05.981Z,14.86
2023-05-09T08:18:36.392Z,14.86
2023-05-09T08:21:05.492Z,14.93
2023-05-09T08:23:34.222Z,14.89
2023-05-09T08:26:03.169Z,14.92
2023-05-09T08:28:32.375Z,14.87
2023-05-09T08:31:01.277Z,15.00
2023-05-09T08:33:30.002Z,15.03
2023-05-09T08:36:00.454Z,15.28
2023-05-09T08:38:29.461Z,15.74
2023-05-09T08:41:02.398Z,15.75
2023-05-09T08:43:32.107Z,15.68
2023-05-09T08:46:04.849Z,15.52
2023-05-09T08:48:38.429Z,15.41
2023-05-09T08:51:10.272Z,15.33
2023-05-09T08:53:40.544Z,15.59
2023-05-09T08:56:09.627Z,15.86
2023-05-09T08:58:40.195Z,16.16
2023-05-09T09:01:09.175Z,16.38
2023-05-09T09:03:39.396Z,16.38
2023-05-09T09:06:11.267Z,16.49
2023-05-09T09:08:40.470Z,16.60
2023-05-09T09:11:12.176Z,16.74
2023-05-09T09:13:43.190Z,17.01
2023-05-09T09:16:19.821Z,17.27
2023-05-09T09:18:49.290Z,17.56
2023-05-09T09:21:21.267Z,17.66
2023-05-09T09:23:51.684Z,17.66
2023-05-09T09:26:22.365Z,17.68
2023-05-09T09:28:51.102Z,17.53
2023-05-09T09:31:24.029Z,17.29
2023-05-09T09:33:53.138Z,17.33
2023-05-09T09:36:32.832Z,17.39
2023-05-09T09:39:04.549Z,17.54
2023-05-09T09:41:34.301Z,17.70
2023-05-09T09:44:08.095Z,17.69
2023-05-09T09:46:45.143Z,17.31
2023-05-09T09:49:15.888Z,17.36
2023-05-09T09:51:46.592Z,17.42
2023-05-09T09:54:16.911Z,17.60
2023-05-09T09:56:47.764Z,17.71
2023-05-09T09:59:18.661Z,17.46
2023-05-09T10:02:04.945Z,17.46
2023-05-09T10:04:37.559Z,17.70
2023-05-09T10:07:14.356Z,17.96
2023-05-09T10:09:44.211Z,18.15
2023-05-09T10:12:14.920Z,17.94
2023-05-09T10:14:44.801Z,17.84
2023-05-09T10:17:16.221Z,18.03
2023-05-09T10:19:47.766Z,18.15
2023-05-09T10:22:19.934Z,17.96
2023-05-09T10:24:50.017Z,18.31
2023-05-09T10:27:23.904Z,18.33
2023-05-09T10:30:03.319Z,18.38
2023-05-09T10:32:40.777Z,18.27
2023-05-09T10:35:14.339Z,18.40
2023-05-09T10:37:45.225Z,18.70
2023-05-09T10:40:16.003Z,18.56
2023-05-09T10:42:44.891Z,18.66
2023-05-09T10:45:14.302Z,18.69
2023-05-09T10:47:43.870Z,18.74
2023-05-09T10:50:14.894Z,18.87
2023-05-09T10:53:04.520Z,18.66
2023-05-09T10:55:39.217Z,18.25
2023-05-09T10:58:22.919Z,17.93
2023-05-09T11:00:53.249Z,17.70
2023-05-09T11:03:25.204Z,17.56
2023-05-09T11:05:55.707Z,17.70
2023-05-09T11:08:27.213Z,17.84
2023-05-09T11:11:00.901Z,18.15
2023-05-09T11:13:33.581Z,18.15
2023-05-09T11:16:14.982Z,17.93
2023-05-09T11:18:54.693Z,17.68
2023-05-09T11:21:23.238Z,17.71
2023-05-09T11:23:55.065Z,17.58
2023-05-09T11:26:31.286Z,17.58
2023-05-09T11:29:03.084Z,17.56
2023-05-09T11:31:32.230Z,17.55
2023-05-09T11:34:05.137Z,17.54
2023-05-09T11:36:34.173Z,17.85
2023-05-09T11:39:06.517Z,18.10
2023-05-09T11:41:44.397Z,17.96
2023-05-09T11:44:18.019Z,18.04
2023-05-09T11:46:47.551Z,18.05
2023-05-09T11:49:17.230Z,17.92
2023-05-09T11:51:46.631Z,17.93
2023-05-09T11:54:15.570Z,18.04
2023-05-09T11:56:46.886Z,18.10
2023-05-09T11:59:16.053Z,18.13
2023-05-09T12:01:45.043Z,18.03
2023-05-09T12:04:14.389Z,18.10
2023-05-09T12:06:49.610Z,18.17
2023-05-09T12:09:20.163Z,18.07
2023-05-09T12:11:51.211Z,17.96
2023-05-09T12:14:31.195Z,18.08
2023-05-09T12:17:00.300Z,18.13
2023-05-09T12:19:29.435Z,18.05
2023-05-09T12:21:59.218Z,18.03
2023-05-09T12:24:28.512Z,18.07
2023-05-09T12:27:00.743Z,18.00
2023-05-09T12:29:30.925Z,17.84
2023-05-09T12:32:00.180Z,17.86
2023-05-09T12:34:29.241Z,17.89
2023-05-09T12:37:00.554Z,17.75
2023-05-09T12:39:29.377Z,17.62
2023-05-09T12:42:01.960Z,17.85
2023-05-09T12:44:31.660Z,18.33
2023-05-09T12:47:02.473Z,18.60
2023-05-09T12:49:33.315Z,18.91
2023-05-09T12:52:04.746Z,18.99
2023-05-09T12:54:34.044Z,18.86
2023-05-09T12:57:05.909Z,18.63
2023-05-09T12:59:34.864Z,18.53
2023-05-09T13:02:04.023Z,18.41
2023-05-09T13:04:33.020Z,18.28
2023-05-09T13:07:01.672Z,17.96
2023-05-09T13:09:30.468Z,18.10
2023-05-09T13:11:59.529Z,17.99
2023-05-09T13:14:29.898Z,17.75
2023-05-09T13:16:58.869Z,17.71
2023-05-09T13:19:27.596Z,17.83
2023-05-09T13:21:56.845Z,17.83
2023-05-09T13:24:25.567Z,17.83
2023-05-09T13:26:54.359Z,17.77
2023-05-09T13:29:23.186Z,17.84
2023-05-09T13:31:53.619Z,17.86
2023-05-09T13:34:22.427Z,17.91
2023-05-09T13:36:51.177Z,17.61
2023-05-09T13:39:20.024Z,17.49
2023-05-09T13:41:48.874Z,17.73
2023-05-09T13:44:17.748Z,18.05
2023-05-09T13:46:47.176Z,18.15
2023-05-09T13:49:17.268Z,18.56
2023-05-09T13:51:46.024Z,18.78
2023-05-09T13:54:16.152Z,18.90
2023-05-09T13:56:45.138Z,19.06
2023-05-09T13:59:13.921Z,19.03
2023-05-09T14:01:42.946Z,18.78
2023-05-09T14:04:12.090Z,18.87
2023-05-09T14:06:48.233Z,19.01
2023-05-09T14:09:17.408Z,19.09
2023-05-09T14:11:46.190Z,19.34
2023-05-09T14:14:15.149Z,19.18
2023-05-09T14:16:43.959Z,19.09
2023-05-09T14:19:15.656Z,18.93
2023-05-09T14:21:47.105Z,18.83
2023-05-09T14:24:16.564Z,18.67
2023-05-09T14:26:45.636Z,18.47
2023-05-09T14:29:14.454Z,18.42
2023-05-09T14:31:43.232Z,18.26
2023-05-09T14:34:12.073Z,18.54
2023-05-09T14:36:40.835Z,18.79
2023-05-09T14:39:12.773Z,19.10
2023-05-09T14:41:41.645Z,19.06
2023-05-09T14:44:10.441Z,18.89
2023-05-09T14:46:39.314Z,18.59
2023-05-09T14:49:08.188Z,18.32
2023-05-09T14:51:36.956Z,18.21
2023-05-09T14:54:05.838Z,18.17
2023-05-09T14:56:36.074Z,18.27
2023-05-09T14:59:06.418Z,18.11
2023-05-09T15:01:35.212Z,18.09
2023-05-09T15:04:04.170Z,18.29
2023-05-09T15:06:33.739Z,18.44
2023-05-09T15:09:04.565Z,18.56
2023-05-09T15:11:46.662Z,18.82
2023-05-09T15:14:16.889Z,18.72
2023-05-09T15:16:47.273Z,18.65
2023-05-09T15:19:16.153Z,18.73
2023-05-09T15:21:44.918Z,18.98
2023-05-09T15:24:13.768Z,19.13
2023-05-09T15:26:44.302Z,19.12
2023-05-09T15:29:12.991Z,19.02
2023-05-09T15:31:41.704Z,18.84
2023-05-09T15:34:10.530Z,18.85
2023-05-09T15:36:39.255Z,19.09
2023-05-09T15:39:08.463Z,19.18
2023-05-09T15:41:37.389Z,18.70
2023-05-09T15:44:07.878Z,18.51
2023-05-09T15:46:36.665Z,18.58
2023-05-09T15:49:05.413Z,18.45
2023-05-09T15:51:34.160Z,18.32
2023-05-09T15:54:03.492Z,18.33
2023-05-09T15:56:32.199Z,18.29
2023-05-09T15:59:00.976Z,18.28
2023-05-09T16:01:32.720Z,18.20
2023-05-09T16:04:05.464Z,18.03
2023-05-09T16:06:34.748Z,17.99
2023-05-09T16:09:04.739Z,17.97
2023-05-09T16:11:33.722Z,18.07
2023-05-09T16:14:02.534Z,18.14
2023-05-09T16:16:32.717Z,18.23
2023-05-09T16:19:02.602Z,18.36
2023-05-09T16:21:33.184Z,18.40
2023-05-09T16:24:03.413Z,18.37
2023-05-09T16:26:32.498Z,18.39
2023-05-09T16:29:03.207Z,18.48
2023-05-09T16:31:35.706Z,18.44
2023-05-09T16:34:05.035Z,18.33
2023-05-09T16:36:34.046Z,18.23
2023-05-09T16:39:02.986Z,18.15
2023-05-09T16:41:31.798Z,18.12
2023-05-09T16:44:00.670Z,18.05
2023-05-09T16:46:29.441Z,18.04
2023-05-09T16:48:59.740Z,18.03
2023-05-09T16:51:28.450Z,17.93
2023-05-09T16:53:57.287Z,17.87
2023-05-09T16:56:26.066Z,17.79
2023-05-09T16:58:54.898Z,17.73
2023-05-09T17:01:23.599Z,17.59
2023-05-09T17:03:52.515Z,17.44
2023-05-09T17:06:22.686Z,17.33
2023-05-09T17:08:51.702Z,17.21
2023-05-09T17:11:21.307Z,17.19
2023-05-09T17:13:49.747Z,17.13
2023-05-09T17:16:18.406Z,17.11
2023-05-09T17:18:47.880Z,17.06
2023-05-09T17:21:16.921Z,17.03
2023-05-09T17:23:47.279Z,16.96
2023-05-09T17:26:16.188Z,16.92
2023-05-09T17:28:45.105Z,16.88
2023-05-09T17:31:14.508Z,16.86
2023-05-09T17:33:45.094Z,16.78
2023-05-09T17:36:13.994Z,16.76
2023-05-09T17:38:42.740Z,16.68
2023-05-09T17:41:12.977Z,16.67
2023-05-09T17:43:41.800Z,16.61
2023-05-09T17:46:10.572Z,16.57
2023-05-09T17:48:39.524Z,16.53
2023-05-09T17:51:08.425Z,16.48
2023-05-09T17:53:37.305Z,16.42
2023-05-09T17:56:06.496Z,16.34
2023-05-09T17:58:36.808Z,16.28
2023-05-09T18:01:05.840Z,16.24
2023-05-09T18:03:36.051Z,16.20
2023-05-09T18:06:05.240Z,16.15
2023-05-09T18:08:33.990Z,16.10
2023-05-09T18:11:03.157Z,16.07
2023-05-09T18:13:31.937Z,16.02
2023-05-09T18:16:02.954Z,15.96
2023-05-09T18:18:32.676Z,15.91
2023-05-09T18:21:01.301Z,15.84
2023-05-09T18:23:30.535Z,15.77
2023-05-09T18:25:59.406Z,15.65
2023-05-09T18:28:28.977Z,15.62
2023-05-09T18:30:58.805Z,15.49
2023-05-09T18:33:30.036Z,15.39
2023-05-09T18:35:58.800Z,15.34
2023-05-09T18:38:27.534Z,15.28
2023-05-09T18:40:56.560Z,15.18
2023-05-09T18:43:25.226Z,15.13
2023-05-09T18:45:54.036Z,15.04
2023-05-09T18:48:23.026Z,14.96
2023-05-09T18:50:53.468Z,14.87
2023-05-09T18:53:22.388Z,14.84
2023-05-09T18:55:51.240Z,14.83
2023-05-09T18:58:21.545Z,14.86
2023-05-09T19:00:50.368Z,14.86
2023-05-09T19:03:19.343Z,14.85
2023-05-09T19:05:48.248Z,14.82
2023-05-09T19:08:18.428Z,14.82
2023-05-09T19:10:48.429Z,14.85
2023-05-09T19:13:17.398Z,14.82
2023-05-09T19:15:46.286Z,14.82
2023-05-09T19:18:15.248Z,14.79
2023-05-09T19:20:43.995Z,14.74
2023-05-09T19:23:12.751Z,14.67
2023-05-09T19:25:46.040Z,14.62
2023-05-09T19:28:15.380Z,14.59
2023-05-09T19:30:44.256Z,14.50
2023-05-09T19:33:13.931Z,14.47
2023-05-09T19:35:43.376Z,14.45
2023-05-09T19:38:12.218Z,14.39
2023-05-09T19:40:42.635Z,14.25
2023-05-09T19:43:13.106Z,14.33
2023-05-09T19:45:41.978Z,14.24
2023-05-09T19:48:15.474Z,14.24
2023-05-09T19:50:44.394Z,14.25
2023-05-09T19:53:13.222Z,14.23
2023-05-09T19:55:47.507Z,14.15
2023-05-09T19:58:17.735Z,14.08
2023-05-09T20:00:47.190Z,14.06
2023-05-09T20:03:16.026Z,14.05
2023-05-09T20:08:22.760Z,13.93
2023-05-09T20:10:53.122Z,13.94
2023-05-09T20:13:23.077Z,13.90
2023-05-09T20:15:53.469Z,13.87
2023-05-09T20:18:22.274Z,13.80
2023-05-09T20:20:51.282Z,13.71
2023-05-09T20:23:20.277Z,13.59
2023-05-09T20:25:48.900Z,13.50
2023-05-09T20:28:20.791Z,13.40
2023-05-09T20:30:50.414Z,13.29
2023-05-09T20:33:19.202Z,13.26
2023-05-09T20:35:49.908Z,13.21
2023-05-09T20:38:19.568Z,13.07
2023-05-09T20:40:48.099Z,12.90
2023-05-09T20:43:16.766Z,12.81
2023-05-09T20:45:47.134Z,12.75
2023-05-09T20:48:15.922Z,12.66
2023-05-09T20:50:44.763Z,12.55
2023-05-09T20:53:13.559Z,12.50
2023-05-09T20:55:45.280Z,12.42
2023-05-09T20:58:15.035Z,12.42
2023-05-09T21:00:47.561Z,12.42
2023-05-09T21:03:18.172Z,12.40
2023-05-09T21:05:46.919Z,12.32
2023-05-09T21:08:15.753Z,12.29
2023-05-09T21:10:44.735Z,12.22
2023-05-09T21:13:13.451Z,12.15
2023-05-09T21:15:42.336Z,12.14
2023-05-09T21:18:11.015Z,12.10
2023-05-09T21:20:41.566Z,12.07
2023-05-09T21:23:10.395Z,12.03
2023-05-09T21:25:38.932Z,11.98
2023-05-09T21:28:07.730Z,11.97
2023-05-09T21:30:36.403Z,12.01
2023-05-09T21:33:05.303Z,12.00
2023-05-09T21:35:33.858Z,11.91
2023-05-09T21:38:04.133Z,11.82
2023-05-09T21:40:32.991Z,11.78
2023-05-09T21:43:01.731Z,11.72
2023-05-09T21:45:30.554Z,11.73
2023-05-09T21:47:59.310Z,11.68
2023-05-09T21:50:28.140Z,11.73
2023-05-09T21:52:57.692Z,11.71
2023-05-09T21:55:28.174Z,11.72
2023-05-09T21:57:57.156Z,11.80
2023-05-09T22:00:25.828Z,12.10
2023-05-09T22:02:54.745Z,12.42
2023-05-09T22:05:24.160Z,12.64
2023-05-09T22:07:53.245Z,12.81
2023-05-09T22:10:21.992Z,12.99
2023-05-09T22:12:52.292Z,13.01
2023-05-09T22:15:21.214Z,13.07
2023-05-09T22:17:50.143Z,13.10
2023-05-09T22:20:19.084Z,13.13
2023-05-09T22:22:48.194Z,13.16
2023-05-09T22:25:16.924Z,13.12
2023-05-09T22:27:45.643Z,13.17
2023-05-09T22:30:16.179Z,13.19
2023-05-09T22:32:46.065Z,13.19
2023-05-09T22:35:14.797Z,13.19
2023-05-09T22:37:43.632Z,13.19
2023-05-09T22:40:14.037Z,13.19
2023-05-09T22:42:43.077Z,13.18
2023-05-09T22:45:12.689Z,13.19
2023-05-09T22:47:42.736Z,13.16
2023-05-09T22:50:11.974Z,13.20
2023-05-09T22:52:40.733Z,13.16
2023-05-09T22:55:10.488Z,13.19
2023-05-09T22:57:39.369Z,13.18
2023-05-09T23:00:09.852Z,13.15
2023-05-09T23:02:38.741Z,13.18
2023-05-09T23:05:10.244Z,13.19
2023-05-09T23:07:39.174Z,13.18
2023-05-09T23:10:09.292Z,13.14
2023-05-09T23:12:38.375Z,13.13
2023-05-09T23:15:08.028Z,13.10
2023-05-09T23:17:36.591Z,13.07
2023-05-09T23:20:06.387Z,13.04
2023-05-09T23:22:36.996Z,13.06
2023-05-09T23:25:06.954Z,13.06
2023-05-09T23:27:35.865Z,13.04
2023-05-09T23:30:04.847Z,13.04
2023-05-09T23:32:33.747Z,13.04
2023-05-09T23:35:02.543Z,13.05
2023-05-09T23:37:31.641Z,12.96
2023-05-09T23:40:01.764Z,12.92
2023-05-09T23:42:30.964Z,12.92
2023-05-09T23:44:59.924Z,12.89
2023-05-09T23:47:28.831Z,12.92
2023-05-09T23:49:57.707Z,12.92
2023-05-09T23:52:26.655Z,12.94
2023-05-09T23:54:55.541Z,12.86
2023-05-09T23:57:26.583Z,12.89
2023-05-09T23:59:55.541Z,12.89
